Laura, Ohio
Current Conditions -  °F | °C
As of 4:56 PM on Monday 24 Nov 2014 (Local Time) from KDAY Reporting Station
Overcast Overcast  
Wind Chill: 34°   Ceiling: 2800
Heat Index: 43°   Visibility: 10mi
Dew Point: 33°   Wind: 22mph
Humidity: 68%   Direction: 230°SW
Pressure: 29.7"   Gusts: 30mph
Location:  39.99°N, 84.41°W
Report Text: KDAY 242156Z 23019G26KT 10SM BKN028 OVC036 06/01 A2970 RMK AO2 PK WND 24029/2115 SLP057 T00610006
Loading
Personal Weather Stations






























Interactive Weather Map New forecast layout! Learn more

10-Day Weather Forecast

Advertisements
Track Severe Weather on mobile